createdAt,value
2019-01-18T00:01:51.280Z,2.23
2019-01-18T00:06:56.290Z,2.13
2019-01-18T00:12:01.020Z,2.20
2019-01-18T00:17:06.262Z,2.30
2019-01-18T00:22:11.109Z,3.00
2019-01-18T00:27:15.925Z,2.37
2019-01-18T00:32:21.025Z,2.53
2019-01-18T00:37:26.058Z,2.20
2019-01-18T00:42:30.964Z,2.27
2019-01-18T00:47:35.836Z,2.60
2019-01-18T00:52:40.782Z,2.40
2019-01-18T00:57:45.717Z,2.43
2019-01-18T01:02:50.608Z,2.30
2019-01-18T01:07:55.387Z,2.20
2019-01-18T01:13:00.231Z,2.00
2019-01-18T01:18:05.243Z,2.30
2019-01-18T01:23:10.322Z,2.70
2019-01-18T01:28:15.129Z,2.60
2019-01-18T01:33:20.065Z,2.93
2019-01-18T01:38:25.284Z,3.27
2019-01-18T01:43:30.024Z,3.20
2019-01-18T01:48:35.125Z,2.93
2019-01-18T01:53:39.914Z,3.30
2019-01-18T01:58:45.621Z,3.33
2019-01-18T02:03:50.376Z,2.90
2019-01-18T02:08:55.458Z,3.10
2019-01-18T02:14:00.369Z,2.70
2019-01-18T02:19:05.213Z,2.70
2019-01-18T02:24:10.020Z,2.67
2019-01-18T02:29:15.072Z,2.30
2019-01-18T02:34:20.037Z,2.10
2019-01-18T02:39:25.399Z,2.40
2019-01-18T02:44:30.201Z,2.30
2019-01-18T02:49:35.030Z,2.23
2019-01-18T02:54:40.124Z,2.10
2019-01-18T02:59:45.565Z,2.20
2019-01-18T03:04:50.931Z,2.20
2019-01-18T03:09:55.855Z,2.43
2019-01-18T03:15:00.950Z,2.23
2019-01-18T03:20:07.438Z,2.47
2019-01-18T03:25:17.717Z,2.20
2019-01-18T03:30:23.126Z,1.97
2019-01-18T03:35:28.020Z,2.00
2019-01-18T03:40:33.049Z,3.33
2019-01-18T03:45:37.887Z,3.37
2019-01-18T03:50:42.614Z,3.03
2019-01-18T03:55:47.717Z,5.80
2019-01-18T04:00:52.557Z,3.97
2019-01-18T04:05:57.297Z,3.60
2019-01-18T04:11:02.183Z,3.87
2019-01-18T04:16:07.234Z,2.50
2019-01-18T04:21:11.969Z,2.50
2019-01-18T04:26:16.749Z,2.50
2019-01-18T04:31:21.516Z,2.50
2019-01-18T04:36:26.391Z,2.67
2019-01-18T04:41:31.352Z,3.33
2019-01-18T04:46:36.085Z,3.33
2019-01-18T04:51:41.140Z,3.53
2019-01-18T04:56:45.871Z,2.23
2019-01-18T05:01:50.919Z,2.50
2019-01-18T05:06:55.710Z,2.90
2019-01-18T05:12:00.442Z,3.00
2019-01-18T05:17:05.496Z,3.17
2019-01-18T05:22:10.216Z,2.10
2019-01-18T05:27:14.953Z,2.33
2019-01-18T05:32:19.725Z,3.00
2019-01-18T05:37:24.854Z,2.57
2019-01-18T05:42:29.585Z,2.93
2019-01-18T05:47:34.490Z,2.40
2019-01-18T05:52:39.274Z,2.60
2019-01-18T05:57:44.362Z,2.80
2019-01-18T06:02:49.179Z,2.87
2019-01-18T06:07:54.250Z,2.73
2019-01-18T06:12:59.138Z,2.70
2019-01-18T06:18:03.965Z,2.67
2019-01-18T06:23:09.006Z,3.00
2019-01-18T06:28:14.422Z,2.80
2019-01-18T06:33:26.077Z,2.57
2019-01-18T06:38:32.393Z,2.57
2019-01-18T06:43:37.102Z,2.60
2019-01-18T06:48:42.405Z,2.50
2019-01-18T06:53:47.211Z,2.70
2019-01-18T06:58:53.001Z,3.00
2019-01-18T07:03:58.956Z,2.80
2019-01-18T07:09:06.857Z,4.37
2019-01-18T07:14:11.634Z,3.53
2019-01-18T07:19:16.466Z,3.17
2019-01-18T07:24:21.273Z,2.73
2019-01-18T07:29:26.044Z,3.17
2019-01-18T07:34:31.109Z,3.13
2019-01-18T07:39:36.030Z,3.63
2019-01-18T07:44:40.874Z,3.37
2019-01-18T07:49:45.957Z,3.80
2019-01-18T07:54:50.795Z,4.43
2019-01-18T07:59:55.574Z,3.37
2019-01-18T08:05:00.594Z,3.53
2019-01-18T08:10:07.285Z,3.73
2019-01-18T08:15:15.934Z,3.13
2019-01-18T08:20:22.926Z,3.00
2019-01-18T08:25:28.693Z,3.20
2019-01-18T08:30:33.854Z,3.40
2019-01-18T08:35:38.988Z,3.20
2019-01-18T08:40:44.074Z,3.70
2019-01-18T08:45:51.658Z,3.23
2019-01-18T08:50:56.561Z,3.17
2019-01-18T08:56:01.467Z,3.33
2019-01-18T09:01:06.568Z,3.60
2019-01-18T09:06:11.623Z,3.97
2019-01-18T09:11:16.542Z,4.90
2019-01-18T09:16:21.422Z,4.47
2019-01-18T09:21:26.398Z,3.37
2019-01-18T09:26:31.274Z,3.07
2019-01-18T09:31:42.286Z,2.77
2019-01-18T09:36:42.833Z,2.90
2019-01-18T09:41:48.644Z,2.57
2019-01-18T09:46:53.713Z,3.03
2019-01-18T09:51:58.575Z,3.43
2019-01-18T09:57:03.356Z,2.80
2019-01-18T10:02:08.245Z,2.60
2019-01-18T10:07:12.985Z,3.00
2019-01-18T10:12:18.079Z,2.80
2019-01-18T10:17:22.907Z,2.63
2019-01-18T10:22:27.706Z,2.67
2019-01-18T10:27:32.406Z,2.47
2019-01-18T10:32:37.346Z,2.40
2019-01-18T10:37:42.288Z,2.20
2019-01-18T10:42:48.334Z,2.20
2019-01-18T10:47:53.210Z,2.00
2019-01-18T10:52:58.094Z,1.87
2019-01-18T10:58:02.920Z,1.93
2019-01-18T11:03:09.078Z,2.27
2019-01-18T11:08:17.518Z,2.03
2019-01-18T11:13:20.708Z,2.20
2019-01-18T11:18:25.445Z,2.20
2019-01-18T11:23:30.302Z,2.20
2019-01-18T11:28:35.331Z,2.03
2019-01-18T11:33:40.191Z,1.77
2019-01-18T11:38:45.186Z,1.70
2019-01-18T11:43:49.941Z,1.70
2019-01-18T11:48:55.222Z,1.37
2019-01-18T11:54:00.067Z,1.80
2019-01-18T11:59:04.957Z,1.00
2019-01-18T12:04:10.156Z,1.13
2019-01-18T12:09:14.977Z,0.70
2019-01-18T12:14:19.742Z,1.20
2019-01-18T12:19:24.640Z,0.93
2019-01-18T12:24:29.602Z,0.80
2019-01-18T12:29:34.740Z,1.70
2019-01-18T12:34:39.597Z,1.30
2019-01-18T12:39:47.635Z,1.40
2019-01-18T12:44:52.366Z,1.73
2019-01-18T12:49:57.104Z,1.90
2019-01-18T12:55:01.940Z,1.70
2019-01-18T13:00:10.181Z,1.43
2019-01-18T13:05:17.812Z,1.60
2019-01-18T13:10:22.925Z,1.70
2019-01-18T13:15:35.022Z,1.40
2019-01-18T13:20:39.911Z,1.60
2019-01-18T13:25:44.862Z,1.40
2019-01-18T13:30:49.706Z,1.60
2019-01-18T13:35:54.586Z,1.57
2019-01-18T13:40:59.535Z,1.37
2019-01-18T13:46:04.510Z,1.50
2019-01-18T13:51:09.519Z,1.50
2019-01-18T13:56:15.263Z,1.40
2019-01-18T14:01:20.184Z,1.83
2019-01-18T14:06:25.314Z,1.30
2019-01-18T14:11:30.585Z,1.10
2019-01-18T14:16:35.627Z,1.50
2019-01-18T14:21:40.501Z,1.30
2019-01-18T14:26:45.492Z,0.90
2019-01-18T14:37:25.551Z,1.47
2019-01-18T14:42:43.792Z,1.43
2019-01-18T14:48:29.880Z,1.20
2019-01-18T14:53:36.429Z,1.30
2019-01-18T14:58:53.970Z,1.07
2019-01-18T15:04:01.775Z,1.20
2019-01-18T15:09:11.534Z,2.40
2019-01-18T15:14:18.457Z,1.20
2019-01-18T15:19:23.359Z,1.40
2019-01-18T15:24:28.266Z,1.27
2019-01-18T15:29:33.185Z,1.10
2019-01-18T15:34:38.497Z,0.90
2019-01-18T15:39:43.262Z,0.63
2019-01-18T15:44:48.217Z,1.20
2019-01-18T15:49:53.139Z,1.13
2019-01-18T15:54:58.059Z,0.80
2019-01-18T16:00:02.891Z,0.93
2019-01-18T16:05:08.235Z,1.30
2019-01-18T16:10:13.870Z,0.90
2019-01-18T16:15:19.983Z,1.03
2019-01-18T16:20:24.914Z,1.00
2019-01-18T16:25:30.031Z,1.20
2019-01-18T16:30:36.047Z,1.10
2019-01-18T16:35:41.041Z,1.27
2019-01-18T16:40:46.212Z,1.30
2019-01-18T16:45:53.249Z,1.00
2019-01-18T16:51:00.180Z,1.00
2019-01-18T16:56:05.971Z,1.57
2019-01-18T17:01:14.290Z,3.67
2019-01-18T17:06:21.645Z,4.30
2019-01-18T17:11:26.805Z,6.37
2019-01-18T17:16:31.625Z,5.60
2019-01-18T17:21:36.872Z,4.30
2019-01-18T17:26:41.749Z,4.67
2019-01-18T17:31:48.702Z,4.73
2019-01-18T17:37:08.102Z,3.57
2019-01-18T17:43:07.782Z,3.57
2019-01-18T17:48:37.618Z,2.93
2019-01-18T17:53:51.752Z,2.60
2019-01-18T17:59:56.247Z,3.17
2019-01-18T18:06:00.169Z,2.90
2019-01-18T18:11:47.969Z,1.67
2019-01-18T18:17:29.520Z,2.00
2019-01-18T18:23:14.225Z,1.53
2019-01-18T18:29:14.861Z,2.00
2019-01-18T18:34:48.967Z,1.20
2019-01-18T18:40:06.087Z,1.80
2019-01-18T18:45:46.455Z,3.00
2019-01-18T18:51:13.670Z,4.63
2019-01-18T18:56:29.193Z,3.17
2019-01-18T19:02:13.148Z,2.47
2019-01-18T19:07:44.713Z,3.17
2019-01-18T19:13:15.470Z,2.93
2019-01-18T19:18:57.262Z,3.37
2019-01-18T19:24:20.423Z,3.73
2019-01-18T19:30:02.003Z,3.63
2019-01-18T19:35:29.179Z,3.53
2019-01-18T19:41:14.015Z,2.97
2019-01-18T19:46:49.737Z,2.60
2019-01-18T19:52:02.779Z,2.50
2019-01-18T19:57:29.579Z,2.30
2019-01-18T20:03:15.629Z,3.00
2019-01-18T20:08:38.459Z,2.37
2019-01-18T20:14:30.875Z,2.23
2019-01-18T20:20:19.777Z,2.40
2019-01-18T20:25:48.410Z,2.23
2019-01-18T20:31:58.229Z,1.70
2019-01-18T20:37:18.233Z,1.40
2019-01-18T20:42:48.285Z,1.37
2019-01-18T20:48:24.788Z,1.60
2019-01-18T20:54:00.709Z,1.33
2019-01-18T20:59:16.840Z,1.20
2019-01-18T21:05:00.853Z,1.47
2019-01-18T21:10:40.563Z,2.30
2019-01-18T21:16:11.242Z,2.77
2019-01-18T21:22:07.379Z,2.73
2019-01-18T21:27:47.370Z,3.30
2019-01-18T21:33:48.176Z,2.33
2019-01-18T21:39:42.249Z,2.50
2019-01-18T21:45:32.973Z,3.13
2019-01-18T21:51:03.847Z,3.13
2019-01-18T21:56:52.862Z,3.17
2019-01-18T22:02:16.230Z,3.63
2019-01-18T22:07:53.244Z,3.17
2019-01-18T22:13:23.505Z,3.90
2019-01-18T22:18:56.410Z,3.03
2019-01-18T22:24:28.093Z,2.87
2019-01-18T22:30:00.196Z,2.63
2019-01-18T22:35:53.778Z,1.90
2019-01-18T22:41:33.401Z,2.43
2019-01-18T22:47:17.775Z,2.27
2019-01-18T22:52:47.430Z,2.17
2019-01-18T22:58:37.137Z,2.07
2019-01-18T23:04:27.755Z,2.10
2019-01-18T23:10:28.180Z,3.73
2019-01-18T23:15:56.838Z,3.30
2019-01-18T23:21:22.068Z,3.17
2019-01-18T23:26:54.848Z,2.23
2019-01-18T23:32:25.746Z,2.37
2019-01-18T23:37:37.057Z,2.87
2019-01-18T23:43:01.664Z,2.93
2019-01-18T23:48:52.895Z,2.37
2019-01-18T23:54:24.892Z,2.43
2019-01-18T23:59:48.944Z,2.50
